sensor_id;sensor_type;location;lat;lon;timestamp;P1;durP1;ratioP1;P2;durP2;ratioP2
60014;SDS011;45867;52.480;6.056;2023-06-26T00:01:12;9.60;;;7.05;;
60014;SDS011;45867;52.480;6.056;2023-06-26T00:03:37;10.07;;;6.80;;
60014;SDS011;45867;52.480;6.056;2023-06-26T00:06:02;11.45;;;7.20;;
60014;SDS011;45867;52.480;6.056;2023-06-26T00:08:28;10.77;;;7.00;;
60014;SDS011;45867;52.480;6.056;2023-06-26T00:10:53;12.40;;;7.25;;
60014;SDS011;45867;52.480;6.056;2023-06-26T00:13:19;14.35;;;7.43;;
60014;SDS011;45867;52.480;6.056;2023-06-26T00:15:45;11.10;;;7.25;;
60014;SDS011;45867;52.480;6.056;2023-06-26T00:18:10;13.45;;;7.55;;
60014;SDS011;45867;52.480;6.056;2023-06-26T00:20:35;11.30;;;7.18;;
60014;SDS011;45867;52.480;6.056;2023-06-26T00:23:01;10.75;;;8.02;;
60014;SDS011;45867;52.480;6.056;2023-06-26T00:25:29;12.88;;;7.85;;
60014;SDS011;45867;52.480;6.056;2023-06-26T00:27:54;16.95;;;8.07;;
60014;SDS011;45867;52.480;6.056;2023-06-26T00:30:19;12.13;;;7.88;;
60014;SDS011;45867;52.480;6.056;2023-06-26T00:32:45;11.98;;;8.30;;
60014;SDS011;45867;52.480;6.056;2023-06-26T00:35:10;12.98;;;7.72;;
60014;SDS011;45867;52.480;6.056;2023-06-26T00:37:35;17.25;;;8.27;;
60014;SDS011;45867;52.480;6.056;2023-06-26T00:40:01;13.43;;;8.25;;
60014;SDS011;45867;52.480;6.056;2023-06-26T00:42:26;10.85;;;8.27;;
60014;SDS011;45867;52.480;6.056;2023-06-26T00:44:51;12.98;;;8.65;;
60014;SDS011;45867;52.480;6.056;2023-06-26T00:47:17;13.40;;;8.70;;
60014;SDS011;45867;52.480;6.056;2023-06-26T00:49:43;14.45;;;9.15;;
60014;SDS011;45867;52.480;6.056;2023-06-26T00:52:09;12.90;;;8.45;;
60014;SDS011;45867;52.480;6.056;2023-06-26T00:54:34;12.90;;;9.38;;
60014;SDS011;45867;52.480;6.056;2023-06-26T00:56:59;13.48;;;9.43;;
60014;SDS011;45867;52.480;6.056;2023-06-26T00:59:28;13.10;;;9.07;;
60014;SDS011;45867;52.480;6.056;2023-06-26T01:01:53;15.57;;;9.52;;
60014;SDS011;45867;52.480;6.056;2023-06-26T01:04:22;13.65;;;9.80;;
60014;SDS011;45867;52.480;6.056;2023-06-26T01:06:52;16.30;;;9.75;;
60014;SDS011;45867;52.480;6.056;2023-06-26T01:09:17;18.63;;;9.15;;
60014;SDS011;45867;52.480;6.056;2023-06-26T01:11:44;13.35;;;10.07;;
60014;SDS011;45867;52.480;6.056;2023-06-26T01:14:10;12.38;;;9.50;;
60014;SDS011;45867;52.480;6.056;2023-06-26T01:16:35;12.88;;;9.50;;
60014;SDS011;45867;52.480;6.056;2023-06-26T01:19:03;15.00;;;10.15;;
60014;SDS011;45867;52.480;6.056;2023-06-26T01:21:34;14.98;;;9.27;;
60014;SDS011;45867;52.480;6.056;2023-06-26T01:24:09;16.90;;;9.40;;
60014;SDS011;45867;52.480;6.056;2023-06-26T01:26:45;12.43;;;8.23;;
60014;SDS011;45867;52.480;6.056;2023-06-26T01:29:15;11.38;;;8.45;;
60014;SDS011;45867;52.480;6.056;2023-06-26T01:31:43;11.35;;;8.77;;
60014;SDS011;45867;52.480;6.056;2023-06-26T01:34:11;13.07;;;8.85;;
60014;SDS011;45867;52.480;6.056;2023-06-26T01:36:37;16.15;;;8.48;;
60014;SDS011;45867;52.480;6.056;2023-06-26T01:39:03;13.02;;;8.60;;
60014;SDS011;45867;52.480;6.056;2023-06-26T01:41:28;18.95;;;8.63;;
60014;SDS011;45867;52.480;6.056;2023-06-26T01:49:09;14.48;;;7.80;;
60014;SDS011;45867;52.480;6.056;2023-06-26T01:54:30;10.80;;;7.95;;
60014;SDS011;45867;52.480;6.056;2023-06-26T01:57:00;17.58;;;8.18;;
60014;SDS011;45867;52.480;6.056;2023-06-26T01:59:26;13.07;;;8.65;;
60014;SDS011;45867;52.480;6.056;2023-06-26T02:01:56;15.88;;;8.52;;
60014;SDS011;45867;52.480;6.056;2023-06-26T02:04:21;13.10;;;8.02;;
60014;SDS011;45867;52.480;6.056;2023-06-26T02:06:46;11.95;;;8.05;;
60014;SDS011;45867;52.480;6.056;2023-06-26T02:09:12;13.98;;;8.43;;
60014;SDS011;45867;52.480;6.056;2023-06-26T02:11:37;10.52;;;8.30;;
60014;SDS011;45867;52.480;6.056;2023-06-26T02:14:03;10.82;;;8.00;;
60014;SDS011;45867;52.480;6.056;2023-06-26T02:16:28;10.98;;;8.35;;
60014;SDS011;45867;52.480;6.056;2023-06-26T02:18:54;11.43;;;8.10;;
60014;SDS011;45867;52.480;6.056;2023-06-26T02:21:20;12.43;;;8.73;;
60014;SDS011;45867;52.480;6.056;2023-06-26T02:23:45;10.73;;;8.35;;
60014;SDS011;45867;52.480;6.056;2023-06-26T02:26:10;14.50;;;8.35;;
60014;SDS011;45867;52.480;6.056;2023-06-26T02:28:36;11.25;;;8.40;;
60014;SDS011;45867;52.480;6.056;2023-06-26T02:31:01;11.05;;;8.30;;
60014;SDS011;45867;52.480;6.056;2023-06-26T02:33:27;16.75;;;8.90;;
60014;SDS011;45867;52.480;6.056;2023-06-26T02:35:52;15.40;;;9.07;;
60014;SDS011;45867;52.480;6.056;2023-06-26T02:38:17;16.95;;;8.93;;
60014;SDS011;45867;52.480;6.056;2023-06-26T02:40:43;15.05;;;8.77;;
60014;SDS011;45867;52.480;6.056;2023-06-26T02:43:09;13.15;;;8.95;;
60014;SDS011;45867;52.480;6.056;2023-06-26T02:45:34;14.77;;;8.70;;
60014;SDS011;45867;52.480;6.056;2023-06-26T02:48:00;17.58;;;8.43;;
60014;SDS011;45867;52.480;6.056;2023-06-26T02:50:26;16.15;;;9.40;;
60014;SDS011;45867;52.480;6.056;2023-06-26T02:52:51;16.00;;;8.95;;
60014;SDS011;45867;52.480;6.056;2023-06-26T02:55:18;12.75;;;8.50;;
60014;SDS011;45867;52.480;6.056;2023-06-26T02:57:44;14.15;;;8.63;;
60014;SDS011;45867;52.480;6.056;2023-06-26T03:00:10;14.27;;;9.15;;
60014;SDS011;45867;52.480;6.056;2023-06-26T03:02:36;18.20;;;8.70;;
60014;SDS011;45867;52.480;6.056;2023-06-26T03:05:01;15.38;;;9.50;;
60014;SDS011;45867;52.480;6.056;2023-06-26T03:07:28;18.58;;;9.30;;
60014;SDS011;45867;52.480;6.056;2023-06-26T03:09:53;20.30;;;8.32;;
60014;SDS011;45867;52.480;6.056;2023-06-26T03:12:18;21.25;;;8.95;;
60014;SDS011;45867;52.480;6.056;2023-06-26T03:14:44;12.10;;;8.70;;
60014;SDS011;45867;52.480;6.056;2023-06-26T03:17:09;13.65;;;9.40;;
60014;SDS011;45867;52.480;6.056;2023-06-26T03:19:34;25.50;;;8.70;;
60014;SDS011;45867;52.480;6.056;2023-06-26T03:21:59;11.93;;;8.85;;
60014;SDS011;45867;52.480;6.056;2023-06-26T03:24:25;16.05;;;8.40;;
60014;SDS011;45867;52.480;6.056;2023-06-26T03:26:50;14.98;;;8.10;;
60014;SDS011;45867;52.480;6.056;2023-06-26T03:29:16;10.25;;;7.18;;
60014;SDS011;45867;52.480;6.056;2023-06-26T03:31:42;12.57;;;7.28;;
60014;SDS011;45867;52.480;6.056;2023-06-26T03:34:07;10.65;;;6.72;;
60014;SDS011;45867;52.480;6.056;2023-06-26T03:36:33;15.27;;;7.22;;
60014;SDS011;45867;52.480;6.056;2023-06-26T03:38:58;10.68;;;6.07;;
60014;SDS011;45867;52.480;6.056;2023-06-26T03:41:23;15.98;;;6.68;;
60014;SDS011;45867;52.480;6.056;2023-06-26T03:43:49;13.65;;;6.57;;
60014;SDS011;45867;52.480;6.056;2023-06-26T03:46:14;16.55;;;5.72;;
60014;SDS011;45867;52.480;6.056;2023-06-26T03:48:40;10.15;;;5.70;;
60014;SDS011;45867;52.480;6.056;2023-06-26T03:51:05;13.68;;;5.70;;
60014;SDS011;45867;52.480;6.056;2023-06-26T03:53:32;13.70;;;5.35;;
60014;SDS011;45867;52.480;6.056;2023-06-26T03:55:57;19.30;;;5.32;;
60014;SDS011;45867;52.480;6.056;2023-06-26T03:58:22;12.20;;;5.43;;
60014;SDS011;45867;52.480;6.056;2023-06-26T04:00:48;10.27;;;4.85;;
60014;SDS011;45867;52.480;6.056;2023-06-26T04:03:13;9.63;;;5.30;;
60014;SDS011;45867;52.480;6.056;2023-06-26T04:05:39;11.02;;;5.05;;
60014;SDS011;45867;52.480;6.056;2023-06-26T04:08:04;11.35;;;4.93;;
60014;SDS011;45867;52.480;6.056;2023-06-26T04:10:29;10.43;;;4.60;;
60014;SDS011;45867;52.480;6.056;2023-06-26T04:12:55;13.18;;;5.10;;
60014;SDS011;45867;52.480;6.056;2023-06-26T04:15:20;18.42;;;5.32;;
60014;SDS011;45867;52.480;6.056;2023-06-26T04:17:46;15.82;;;5.53;;
60014;SDS011;45867;52.480;6.056;2023-06-26T04:20:11;17.13;;;4.85;;
60014;SDS011;45867;52.480;6.056;2023-06-26T04:22:36;17.55;;;5.28;;
60014;SDS011;45867;52.480;6.056;2023-06-26T04:25:02;22.10;;;5.13;;
60014;SDS011;45867;52.480;6.056;2023-06-26T04:27:28;12.88;;;5.40;;
60014;SDS011;45867;52.480;6.056;2023-06-26T04:29:54;13.48;;;5.30;;
60014;SDS011;45867;52.480;6.056;2023-06-26T04:32:19;14.20;;;4.97;;
60014;SDS011;45867;52.480;6.056;2023-06-26T04:34:44;18.33;;;5.80;;
60014;SDS011;45867;52.480;6.056;2023-06-26T04:37:10;14.00;;;5.50;;
60014;SDS011;45867;52.480;6.056;2023-06-26T04:39:35;10.95;;;5.00;;
60014;SDS011;45867;52.480;6.056;2023-06-26T04:42:02;15.25;;;5.75;;
60014;SDS011;45867;52.480;6.056;2023-06-26T04:44:28;19.58;;;5.40;;
60014;SDS011;45867;52.480;6.056;2023-06-26T04:46:54;10.30;;;5.10;;
60014;SDS011;45867;52.480;6.056;2023-06-26T04:49:19;13.85;;;5.53;;
60014;SDS011;45867;52.480;6.056;2023-06-26T04:51:45;15.93;;;5.30;;
60014;SDS011;45867;52.480;6.056;2023-06-26T04:54:11;25.75;;;6.28;;
60014;SDS011;45867;52.480;6.056;2023-06-26T04:56:36;14.98;;;5.25;;
60014;SDS011;45867;52.480;6.056;2023-06-26T04:59:02;17.65;;;6.00;;
60014;SDS011;45867;52.480;6.056;2023-06-26T05:01:30;14.43;;;5.72;;
60014;SDS011;45867;52.480;6.056;2023-06-26T05:03:57;17.80;;;5.53;;
60014;SDS011;45867;52.480;6.056;2023-06-26T05:06:25;14.57;;;5.38;;
60014;SDS011;45867;52.480;6.056;2023-06-26T05:08:51;15.50;;;5.40;;
60014;SDS011;45867;52.480;6.056;2023-06-26T05:11:16;22.40;;;6.85;;
60014;SDS011;45867;52.480;6.056;2023-06-26T05:13:41;17.10;;;5.32;;
60014;SDS011;45867;52.480;6.056;2023-06-26T05:16:07;14.77;;;5.38;;
60014;SDS011;45867;52.480;6.056;2023-06-26T05:18:34;18.52;;;5.32;;
60014;SDS011;45867;52.480;6.056;2023-06-26T05:20:59;17.50;;;4.85;;
60014;SDS011;45867;52.480;6.056;2023-06-26T05:23:25;17.95;;;5.47;;
60014;SDS011;45867;52.480;6.056;2023-06-26T05:25:52;14.40;;;5.50;;
60014;SDS011;45867;52.480;6.056;2023-06-26T05:28:17;20.30;;;5.43;;
60014;SDS011;45867;52.480;6.056;2023-06-26T05:30:43;15.05;;;4.82;;
60014;SDS011;45867;52.480;6.056;2023-06-26T05:33:10;20.55;;;4.72;;
60014;SDS011;45867;52.480;6.056;2023-06-26T05:35:37;18.60;;;4.68;;
60014;SDS011;45867;52.480;6.056;2023-06-26T05:38:08;13.73;;;4.63;;
60014;SDS011;45867;52.480;6.056;2023-06-26T05:40:34;19.23;;;3.83;;
60014;SDS011;45867;52.480;6.056;2023-06-26T05:42:59;10.32;;;4.47;;
60014;SDS011;45867;52.480;6.056;2023-06-26T05:45:25;8.68;;;3.53;;
60014;SDS011;45867;52.480;6.056;2023-06-26T05:47:50;7.68;;;3.55;;
60014;SDS011;45867;52.480;6.056;2023-06-26T05:50:17;11.65;;;3.70;;
60014;SDS011;45867;52.480;6.056;2023-06-26T05:52:42;13.48;;;4.00;;
60014;SDS011;45867;52.480;6.056;2023-06-26T05:55:09;12.30;;;3.90;;
60014;SDS011;45867;52.480;6.056;2023-06-26T05:57:35;13.48;;;4.00;;
60014;SDS011;45867;52.480;6.056;2023-06-26T06:00:02;9.32;;;3.35;;
60014;SDS011;45867;52.480;6.056;2023-06-26T06:02:30;12.00;;;3.85;;
60014;SDS011;45867;52.480;6.056;2023-06-26T06:04:56;6.18;;;2.90;;
60014;SDS011;45867;52.480;6.056;2023-06-26T06:07:21;7.25;;;3.20;;
60014;SDS011;45867;52.480;6.056;2023-06-26T06:09:47;8.75;;;2.75;;
60014;SDS011;45867;52.480;6.056;2023-06-26T06:12:12;6.95;;;2.50;;
60014;SDS011;45867;52.480;6.056;2023-06-26T06:14:37;4.43;;;1.88;;
60014;SDS011;45867;52.480;6.056;2023-06-26T06:17:03;5.93;;;2.40;;
60014;SDS011;45867;52.480;6.056;2023-06-26T06:19:28;11.27;;;2.50;;
60014;SDS011;45867;52.480;6.056;2023-06-26T06:21:53;5.40;;;2.47;;
60014;SDS011;45867;52.480;6.056;2023-06-26T06:24:19;3.85;;;2.08;;
60014;SDS011;45867;52.480;6.056;2023-06-26T06:26:45;6.25;;;2.17;;
60014;SDS011;45867;52.480;6.056;2023-06-26T06:29:10;9.45;;;2.40;;
60014;SDS011;45867;52.480;6.056;2023-06-26T06:31:35;5.78;;;2.13;;
60014;SDS011;45867;52.480;6.056;2023-06-26T06:34:01;4.38;;;2.10;;
60014;SDS011;45867;52.480;6.056;2023-06-26T06:36:26;4.07;;;2.13;;
60014;SDS011;45867;52.480;6.056;2023-06-26T06:38:52;7.47;;;2.53;;
60014;SDS011;45867;52.480;6.056;2023-06-26T06:41:17;6.60;;;2.35;;
60014;SDS011;45867;52.480;6.056;2023-06-26T06:43:42;8.05;;;2.40;;
60014;SDS011;45867;52.480;6.056;2023-06-26T06:46:08;6.97;;;2.53;;
60014;SDS011;45867;52.480;6.056;2023-06-26T06:48:33;6.93;;;2.42;;
60014;SDS011;45867;52.480;6.056;2023-06-26T06:50:59;6.97;;;2.42;;
60014;SDS011;45867;52.480;6.056;2023-06-26T06:53:24;4.72;;;2.13;;
60014;SDS011;45867;52.480;6.056;2023-06-26T06:55:50;6.35;;;2.20;;
60014;SDS011;45867;52.480;6.056;2023-06-26T06:58:15;7.57;;;2.30;;
60014;SDS011;45867;52.480;6.056;2023-06-26T07:00:47;4.32;;;1.95;;
60014;SDS011;45867;52.480;6.056;2023-06-26T07:03:14;4.93;;;2.20;;
60014;SDS011;45867;52.480;6.056;2023-06-26T07:05:43;5.70;;;2.20;;
60014;SDS011;45867;52.480;6.056;2023-06-26T07:08:09;7.20;;;2.10;;
60014;SDS011;45867;52.480;6.056;2023-06-26T07:10:34;5.28;;;2.10;;
60014;SDS011;45867;52.480;6.056;2023-06-26T07:13:00;5.22;;;2.28;;
60014;SDS011;45867;52.480;6.056;2023-06-26T07:15:25;5.65;;;2.17;;
60014;SDS011;45867;52.480;6.056;2023-06-26T07:17:51;5.80;;;2.38;;
60014;SDS011;45867;52.480;6.056;2023-06-26T07:20:16;5.38;;;2.40;;
60014;SDS011;45867;52.480;6.056;2023-06-26T07:22:42;8.60;;;2.30;;
60014;SDS011;45867;52.480;6.056;2023-06-26T07:25:08;5.88;;;2.10;;
60014;SDS011;45867;52.480;6.056;2023-06-26T07:27:34;7.60;;;2.25;;
60014;SDS011;45867;52.480;6.056;2023-06-26T07:30:00;4.68;;;2.00;;
60014;SDS011;45867;52.480;6.056;2023-06-26T07:32:26;6.53;;;2.20;;
60014;SDS011;45867;52.480;6.056;2023-06-26T07:34:51;7.90;;;2.47;;
60014;SDS011;45867;52.480;6.056;2023-06-26T07:37:16;6.10;;;2.53;;
60014;SDS011;45867;52.480;6.056;2023-06-26T07:39:42;8.80;;;2.30;;
60014;SDS011;45867;52.480;6.056;2023-06-26T07:42:07;5.25;;;2.30;;
60014;SDS011;45867;52.480;6.056;2023-06-26T07:44:32;8.43;;;2.55;;
60014;SDS011;45867;52.480;6.056;2023-06-26T07:46:58;8.45;;;2.35;;
60014;SDS011;45867;52.480;6.056;2023-06-26T07:49:23;7.93;;;2.40;;
60014;SDS011;45867;52.480;6.056;2023-06-26T07:51:49;5.28;;;2.58;;
60014;SDS011;45867;52.480;6.056;2023-06-26T07:54:14;7.30;;;2.08;;
60014;SDS011;45867;52.480;6.056;2023-06-26T07:56:59;11.50;;;2.10;;
60014;SDS011;45867;52.480;6.056;2023-06-26T07:59:26;4.20;;;2.30;;
60014;SDS011;45867;52.480;6.056;2023-06-26T08:01:53;4.95;;;2.15;;
60014;SDS011;45867;52.480;6.056;2023-06-26T08:04:21;7.30;;;2.40;;
60014;SDS011;45867;52.480;6.056;2023-06-26T08:06:49;4.22;;;2.38;;
60014;SDS011;45867;52.480;6.056;2023-06-26T08:09:16;3.78;;;1.80;;
60014;SDS011;45867;52.480;6.056;2023-06-26T08:11:42;5.47;;;2.05;;
60014;SDS011;45867;52.480;6.056;2023-06-26T08:14:07;5.38;;;2.22;;
60014;SDS011;45867;52.480;6.056;2023-06-26T08:16:33;4.68;;;2.15;;
60014;SDS011;45867;52.480;6.056;2023-06-26T08:18:58;7.97;;;2.58;;
60014;SDS011;45867;52.480;6.056;2023-06-26T08:21:24;8.48;;;2.70;;
60014;SDS011;45867;52.480;6.056;2023-06-26T08:23:49;6.45;;;2.63;;
60014;SDS011;45867;52.480;6.056;2023-06-26T08:26:14;6.97;;;2.33;;
60014;SDS011;45867;52.480;6.056;2023-06-26T08:28:40;5.20;;;2.58;;
60014;SDS011;45867;52.480;6.056;2023-06-26T08:31:05;4.93;;;2.30;;
60014;SDS011;45867;52.480;6.056;2023-06-26T08:33:30;5.63;;;2.13;;
60014;SDS011;45867;52.480;6.056;2023-06-26T08:35:56;6.53;;;2.58;;
60014;SDS011;45867;52.480;6.056;2023-06-26T08:38:21;7.32;;;2.38;;
60014;SDS011;45867;52.480;6.056;2023-06-26T08:40:47;9.43;;;3.10;;
60014;SDS011;45867;52.480;6.056;2023-06-26T08:43:13;6.57;;;2.72;;
60014;SDS011;45867;52.480;6.056;2023-06-26T08:45:38;7.43;;;2.35;;
60014;SDS011;45867;52.480;6.056;2023-06-26T08:48:04;6.25;;;2.65;;
60014;SDS011;45867;52.480;6.056;2023-06-26T08:50:33;6.65;;;2.83;;
60014;SDS011;45867;52.480;6.056;2023-06-26T08:55:29;7.05;;;2.90;;
60014;SDS011;45867;52.480;6.056;2023-06-26T08:57:56;12.43;;;2.80;;
60014;SDS011;45867;52.480;6.056;2023-06-26T09:00:23;6.20;;;2.90;;
60014;SDS011;45867;52.480;6.056;2023-06-26T09:02:48;6.05;;;2.90;;
60014;SDS011;45867;52.480;6.056;2023-06-26T09:05:13;7.07;;;3.10;;
60014;SDS011;45867;52.480;6.056;2023-06-26T09:07:40;9.95;;;2.78;;
60014;SDS011;45867;52.480;6.056;2023-06-26T09:10:05;5.88;;;2.78;;
60014;SDS011;45867;52.480;6.056;2023-06-26T09:12:31;6.43;;;2.83;;
60014;SDS011;45867;52.480;6.056;2023-06-26T09:14:57;8.32;;;2.80;;
60014;SDS011;45867;52.480;6.056;2023-06-26T09:17:29;8.27;;;2.80;;
60014;SDS011;45867;52.480;6.056;2023-06-26T09:19:58;11.55;;;3.53;;
60014;SDS011;45867;52.480;6.056;2023-06-26T09:22:23;5.85;;;2.80;;
60014;SDS011;45867;52.480;6.056;2023-06-26T09:24:48;11.68;;;2.42;;
60014;SDS011;45867;52.480;6.056;2023-06-26T09:27:15;11.32;;;2.78;;
60014;SDS011;45867;52.480;6.056;2023-06-26T09:29:41;12.63;;;2.40;;
60014;SDS011;45867;52.480;6.056;2023-06-26T09:32:09;4.28;;;2.42;;
60014;SDS011;45867;52.480;6.056;2023-06-26T09:34:35;10.55;;;2.58;;
60014;SDS011;45867;52.480;6.056;2023-06-26T09:37:00;7.72;;;2.70;;
60014;SDS011;45867;52.480;6.056;2023-06-26T09:39:32;15.65;;;2.92;;
60014;SDS011;45867;52.480;6.056;2023-06-26T09:41:57;5.90;;;2.50;;
60014;SDS011;45867;52.480;6.056;2023-06-26T09:44:24;5.95;;;2.70;;
60014;SDS011;45867;52.480;6.056;2023-06-26T09:46:49;6.65;;;2.75;;
60014;SDS011;45867;52.480;6.056;2023-06-26T09:49:15;10.00;;;2.50;;
60014;SDS011;45867;52.480;6.056;2023-06-26T09:51:41;13.75;;;2.90;;
60014;SDS011;45867;52.480;6.056;2023-06-26T09:54:08;12.45;;;3.10;;
60014;SDS011;45867;52.480;6.056;2023-06-26T09:56:34;8.80;;;2.40;;
60014;SDS011;45867;52.480;6.056;2023-06-26T09:59:00;5.65;;;2.22;;
60014;SDS011;45867;52.480;6.056;2023-06-26T10:01:27;9.15;;;2.25;;
60014;SDS011;45867;52.480;6.056;2023-06-26T10:03:54;5.78;;;1.48;;
60014;SDS011;45867;52.480;6.056;2023-06-26T10:09:06;5.47;;;1.88;;
60014;SDS011;45867;52.480;6.056;2023-06-26T10:11:34;6.80;;;2.03;;
60014;SDS011;45867;52.480;6.056;2023-06-26T10:14:11;9.93;;;2.30;;
60014;SDS011;45867;52.480;6.056;2023-06-26T10:16:39;12.77;;;2.08;;
60014;SDS011;45867;52.480;6.056;2023-06-26T10:19:08;5.63;;;2.22;;
60014;SDS011;45867;52.480;6.056;2023-06-26T10:21:35;6.07;;;2.13;;
60014;SDS011;45867;52.480;6.056;2023-06-26T10:24:04;7.90;;;2.40;;
60014;SDS011;45867;52.480;6.056;2023-06-26T10:26:31;7.97;;;2.13;;
60014;SDS011;45867;52.480;6.056;2023-06-26T10:29:02;3.33;;;1.70;;
60014;SDS011;45867;52.480;6.056;2023-06-26T10:31:29;8.60;;;1.88;;
60014;SDS011;45867;52.480;6.056;2023-06-26T10:33:56;5.57;;;1.95;;
60014;SDS011;45867;52.480;6.056;2023-06-26T10:36:29;3.63;;;1.65;;
60014;SDS011;45867;52.480;6.056;2023-06-26T10:38:56;7.82;;;2.50;;
60014;SDS011;45867;52.480;6.056;2023-06-26T10:41:36;9.73;;;2.20;;
60014;SDS011;45867;52.480;6.056;2023-06-26T10:44:09;6.82;;;2.13;;
60014;SDS011;45867;52.480;6.056;2023-06-26T10:46:49;6.43;;;2.15;;
60014;SDS011;45867;52.480;6.056;2023-06-26T10:49:15;8.30;;;2.47;;
60014;SDS011;45867;52.480;6.056;2023-06-26T10:51:49;6.40;;;2.05;;
60014;SDS011;45867;52.480;6.056;2023-06-26T10:54:18;9.75;;;2.17;;
60014;SDS011;45867;52.480;6.056;2023-06-26T10:56:48;12.07;;;2.00;;
60014;SDS011;45867;52.480;6.056;2023-06-26T11:01:42;9.77;;;2.15;;
60014;SDS011;45867;52.480;6.056;2023-06-26T11:04:08;5.63;;;2.05;;
60014;SDS011;45867;52.480;6.056;2023-06-26T11:06:36;4.90;;;2.35;;
60014;SDS011;45867;52.480;6.056;2023-06-26T11:09:09;5.77;;;2.03;;
60014;SDS011;45867;52.480;6.056;2023-06-26T11:14:20;7.43;;;1.55;;
60014;SDS011;45867;52.480;6.056;2023-06-26T11:16:48;9.68;;;2.20;;
60014;SDS011;45867;52.480;6.056;2023-06-26T11:19:14;6.07;;;1.65;;
60014;SDS011;45867;52.480;6.056;2023-06-26T11:21:41;4.00;;;1.60;;
60014;SDS011;45867;52.480;6.056;2023-06-26T11:24:07;6.07;;;1.73;;
60014;SDS011;45867;52.480;6.056;2023-06-26T11:26:40;8.73;;;2.03;;
60014;SDS011;45867;52.480;6.056;2023-06-26T11:29:06;7.45;;;1.60;;
60014;SDS011;45867;52.480;6.056;2023-06-26T11:31:33;4.20;;;1.40;;
60014;SDS011;45867;52.480;6.056;2023-06-26T11:34:00;2.95;;;1.38;;
60014;SDS011;45867;52.480;6.056;2023-06-26T11:36:27;6.88;;;1.30;;
60014;SDS011;45867;52.480;6.056;2023-06-26T11:38:56;5.53;;;1.70;;
60014;SDS011;45867;52.480;6.056;2023-06-26T11:41:26;5.30;;;1.58;;
60014;SDS011;45867;52.480;6.056;2023-06-26T11:43:53;4.15;;;1.55;;
60014;SDS011;45867;52.480;6.056;2023-06-26T11:46:19;4.72;;;1.40;;
60014;SDS011;45867;52.480;6.056;2023-06-26T11:48:47;2.92;;;1.40;;
60014;SDS011;45867;52.480;6.056;2023-06-26T11:51:13;4.40;;;1.50;;
60014;SDS011;45867;52.480;6.056;2023-06-26T11:53:43;7.20;;;1.80;;
60014;SDS011;45867;52.480;6.056;2023-06-26T11:56:10;4.85;;;1.83;;
60014;SDS011;45867;52.480;6.056;2023-06-26T11:58:54;6.60;;;1.63;;
60014;SDS011;45867;52.480;6.056;2023-06-26T12:01:21;11.93;;;1.63;;
60014;SDS011;45867;52.480;6.056;2023-06-26T12:03:47;9.52;;;2.10;;
60014;SDS011;45867;52.480;6.056;2023-06-26T12:06:14;6.55;;;1.65;;
60014;SDS011;45867;52.480;6.056;2023-06-26T12:08:39;8.10;;;1.60;;
60014;SDS011;45867;52.480;6.056;2023-06-26T12:11:05;4.95;;;1.30;;
60014;SDS011;45867;52.480;6.056;2023-06-26T12:13:31;8.90;;;1.35;;
60014;SDS011;45867;52.480;6.056;2023-06-26T12:15:57;3.17;;;1.30;;
60014;SDS011;45867;52.480;6.056;2023-06-26T12:18:22;5.70;;;1.42;;
60014;SDS011;45867;52.480;6.056;2023-06-26T12:20:50;4.95;;;1.60;;
60014;SDS011;45867;52.480;6.056;2023-06-26T12:23:16;4.93;;;1.50;;
60014;SDS011;45867;52.480;6.056;2023-06-26T12:25:42;4.65;;;1.10;;
60014;SDS011;45867;52.480;6.056;2023-06-26T12:28:17;4.47;;;1.40;;
60014;SDS011;45867;52.480;6.056;2023-06-26T12:30:47;4.10;;;1.25;;
60014;SDS011;45867;52.480;6.056;2023-06-26T12:33:32;5.10;;;1.60;;
60014;SDS011;45867;52.480;6.056;2023-06-26T12:35:57;6.60;;;1.63;;
60014;SDS011;45867;52.480;6.056;2023-06-26T12:38:23;2.80;;;1.40;;
60014;SDS011;45867;52.480;6.056;2023-06-26T12:40:48;9.13;;;1.45;;
60014;SDS011;45867;52.480;6.056;2023-06-26T12:43:23;14.70;;;1.70;;
60014;SDS011;45867;52.480;6.056;2023-06-26T12:45:55;7.32;;;1.90;;
60014;SDS011;45867;52.480;6.056;2023-06-26T12:48:21;5.68;;;1.42;;
60014;SDS011;45867;52.480;6.056;2023-06-26T12:51:12;3.85;;;1.30;;
60014;SDS011;45867;52.480;6.056;2023-06-26T12:53:38;3.55;;;1.50;;
60014;SDS011;45867;52.480;6.056;2023-06-26T12:56:05;4.45;;;1.13;;
60014;SDS011;45867;52.480;6.056;2023-06-26T12:58:34;3.13;;;1.20;;
60014;SDS011;45867;52.480;6.056;2023-06-26T13:01:02;4.05;;;1.45;;
60014;SDS011;45867;52.480;6.056;2023-06-26T13:03:28;4.72;;;1.40;;
60014;SDS011;45867;52.480;6.056;2023-06-26T13:05:53;7.10;;;1.60;;
60014;SDS011;45867;52.480;6.056;2023-06-26T13:08:19;8.35;;;1.70;;
60014;SDS011;45867;52.480;6.056;2023-06-26T13:10:44;4.15;;;1.50;;
60014;SDS011;45867;52.480;6.056;2023-06-26T13:13:10;5.22;;;1.30;;
60014;SDS011;45867;52.480;6.056;2023-06-26T13:15:36;6.13;;;1.42;;
60014;SDS011;45867;52.480;6.056;2023-06-26T13:18:01;5.88;;;1.67;;
60014;SDS011;45867;52.480;6.056;2023-06-26T13:20:30;6.43;;;1.80;;
60014;SDS011;45867;52.480;6.056;2023-06-26T13:22:58;10.80;;;1.63;;
60014;SDS011;45867;52.480;6.056;2023-06-26T13:25:23;6.95;;;1.83;;
60014;SDS011;45867;52.480;6.056;2023-06-26T13:27:49;8.70;;;1.70;;
60014;SDS011;45867;52.480;6.056;2023-06-26T13:30:14;14.45;;;1.67;;
60014;SDS011;45867;52.480;6.056;2023-06-26T13:32:40;4.35;;;1.48;;
60014;SDS011;45867;52.480;6.056;2023-06-26T13:35:07;4.53;;;1.50;;
60014;SDS011;45867;52.480;6.056;2023-06-26T13:37:34;7.07;;;1.70;;
60014;SDS011;45867;52.480;6.056;2023-06-26T13:40:00;3.83;;;1.20;;
60014;SDS011;45867;52.480;6.056;2023-06-26T13:42:27;4.22;;;1.40;;
60014;SDS011;45867;52.480;6.056;2023-06-26T13:44:53;7.00;;;1.60;;
60014;SDS011;45867;52.480;6.056;2023-06-26T13:47:18;5.07;;;1.58;;
60014;SDS011;45867;52.480;6.056;2023-06-26T13:49:44;3.92;;;1.52;;
60014;SDS011;45867;52.480;6.056;2023-06-26T13:52:09;7.07;;;1.63;;
60014;SDS011;45867;52.480;6.056;2023-06-26T13:54:35;6.70;;;1.55;;
60014;SDS011;45867;52.480;6.056;2023-06-26T13:57:06;5.97;;;1.60;;
60014;SDS011;45867;52.480;6.056;2023-06-26T13:59:32;7.13;;;1.65;;
60014;SDS011;45867;52.480;6.056;2023-06-26T14:01:58;7.60;;;1.70;;
60014;SDS011;45867;52.480;6.056;2023-06-26T14:04:24;6.55;;;1.60;;
60014;SDS011;45867;52.480;6.056;2023-06-26T14:06:50;7.70;;;1.80;;
60014;SDS011;45867;52.480;6.056;2023-06-26T14:09:15;4.18;;;1.30;;
60014;SDS011;45867;52.480;6.056;2023-06-26T14:11:40;5.20;;;1.48;;
60014;SDS011;45867;52.480;6.056;2023-06-26T14:14:06;3.80;;;1.25;;
60014;SDS011;45867;52.480;6.056;2023-06-26T14:16:32;4.13;;;1.40;;
60014;SDS011;45867;52.480;6.056;2023-06-26T14:18:58;5.10;;;1.20;;
60014;SDS011;45867;52.480;6.056;2023-06-26T14:21:23;8.70;;;1.98;;
60014;SDS011;45867;52.480;6.056;2023-06-26T14:23:49;4.22;;;1.40;;
60014;SDS011;45867;52.480;6.056;2023-06-26T14:26:16;3.20;;;1.30;;
60014;SDS011;45867;52.480;6.056;2023-06-26T14:28:41;4.20;;;1.42;;
60014;SDS011;45867;52.480;6.056;2023-06-26T14:31:07;3.83;;;1.30;;
60014;SDS011;45867;52.480;6.056;2023-06-26T14:33:32;5.43;;;1.73;;
60014;SDS011;45867;52.480;6.056;2023-06-26T14:35:57;6.50;;;1.50;;
60014;SDS011;45867;52.480;6.056;2023-06-26T14:38:23;4.63;;;1.42;;
60014;SDS011;45867;52.480;6.056;2023-06-26T14:40:48;8.15;;;1.48;;
60014;SDS011;45867;52.480;6.056;2023-06-26T14:43:13;3.58;;;1.23;;
60014;SDS011;45867;52.480;6.056;2023-06-26T14:45:39;3.58;;;1.35;;
60014;SDS011;45867;52.480;6.056;2023-06-26T14:48:04;5.28;;;1.52;;
60014;SDS011;45867;52.480;6.056;2023-06-26T14:50:30;6.85;;;1.50;;
60014;SDS011;45867;52.480;6.056;2023-06-26T14:52:56;9.40;;;1.65;;
60014;SDS011;45867;52.480;6.056;2023-06-26T14:55:22;6.55;;;1.40;;